Time;durP1;ratioP1;P1;durP2;ratioP2;P2;SDS_P1;SDS_P2;PMS_P1;PMS_P2;Temp;Humidity;BMP_temperature;BMP_pressure;BME280_temperature;BME280_humidity;BME280_pressure;Samples;Min_cycle;Max_cycle;Signal;HPM_P1;HPM_P2
2021/11/01 00:00:28;;;;;;;66.32;32.17;;;;;;;4.06;100.00;97618.19;5037928;28;20111;-79
2021/11/01 00:02:54;;;;;;;63.30;29.60;;;;;;;4.05;100.00;97624.38;5042209;28;20120;-79
2021/11/01 00:05:21;;;;;;;58.60;26.85;;;;;;;4.04;100.00;97628.81;5037219;28;20052;-80
2021/11/01 00:07:47;;;;;;;51.08;26.67;;;;;;;3.99;100.00;97622.81;5037386;28;20113;-79
2021/11/01 00:10:13;;;;;;;51.75;26.20;;;;;;;4.01;100.00;97626.28;5037971;28;20475;-80
2021/11/01 00:12:39;;;;;;;55.28;26.25;;;;;;;3.95;100.00;97613.25;5036452;28;20452;-79
2021/11/01 00:15:07;;;;;;;54.75;27.67;;;;;;;3.95;100.00;97615.03;5030570;28;20199;-80
2021/11/01 00:17:33;;;;;;;50.85;25.60;;;;;;;3.91;100.00;97614.25;5036632;28;20031;-80
2021/11/01 00:19:58;;;;;;;50.85;25.05;;;;;;;3.85;100.00;97614.47;5032601;28;20024;-81
2021/11/01 00:22:24;;;;;;;49.33;24.95;;;;;;;3.79;100.00;97597.03;5039072;28;20037;-80
2021/11/01 00:24:50;;;;;;;47.03;22.98;;;;;;;3.82;100.00;97609.28;5032007;28;20483;-78
2021/11/01 00:27:16;;;;;;;48.80;23.20;;;;;;;3.76;100.00;97602.44;5031266;28;20031;-79
2021/11/01 00:29:43;;;;;;;53.28;24.45;;;;;;;3.74;100.00;97603.41;5035581;28;20033;-79
2021/11/01 00:32:09;;;;;;;48.42;24.45;;;;;;;3.70;100.00;97594.72;5071158;28;20028;-79
2021/11/01 00:34:35;;;;;;;49.83;24.17;;;;;;;3.60;100.00;97573.94;5043060;28;20035;-80
2021/11/01 00:37:00;;;;;;;57.65;23.73;;;;;;;3.68;100.00;97585.97;5047756;28;20055;-80
2021/11/01 00:39:26;;;;;;;50.05;24.52;;;;;;;3.72;100.00;97594.69;5052470;28;20035;-80
2021/11/01 00:41:52;;;;;;;50.28;24.75;;;;;;;3.70;100.00;97592.06;5033955;28;20476;-79
2021/11/01 00:44:17;;;;;;;52.65;25.10;;;;;;;3.70;100.00;97584.13;5031477;28;20021;-79
2021/11/01 00:46:43;;;;;;;55.70;24.95;;;;;;;3.68;100.00;97585.09;5028026;28;20032;-80
2021/11/01 00:49:09;;;;;;;50.58;25.20;;;;;;;3.61;100.00;97573.00;5046808;28;20120;-79
2021/11/01 00:51:39;;;;;;;50.78;24.70;;;;;;;3.65;100.00;97577.28;5037288;28;20480;-79
2021/11/01 00:54:07;;;;;;;51.67;24.27;;;;;;;3.72;100.00;97577.00;5038033;28;20024;-79
2021/11/01 00:56:33;;;;;;;62.80;27.10;;;;;;;3.61;100.00;97567.72;5029298;28;20814;-79
2021/11/01 00:58:59;;;;;;;60.30;26.75;;;;;;;3.66;100.00;97576.38;5014318;28;20053;-79
2021/11/01 01:01:24;;;;;;;61.08;26.50;;;;;;;3.68;100.00;97575.41;5027775;28;20024;-79
2021/11/01 01:03:50;;;;;;;63.42;27.00;;;;;;;3.61;100.00;97568.59;5027223;28;20036;-79
2021/11/01 01:06:16;;;;;;;57.03;26.75;;;;;;;3.56;100.00;97575.81;5017895;28;20488;-78
2021/11/01 01:08:42;;;;;;;57.88;26.17;;;;;;;3.45;100.00;97562.06;5029719;28;20025;-79
2021/11/01 01:11:08;;;;;;;58.33;26.48;;;;;;;3.45;100.00;97564.72;5030056;28;20086;-78
2021/11/01 01:13:37;;;;;;;59.28;26.60;;;;;;;3.47;100.00;97569.97;5040423;28;20467;-79
2021/11/01 01:18:52;;;;;;;92.07;28.58;;;;;;;3.38;100.00;97555.28;5050352;28;20036;-79
2021/11/01 01:24:02;;;;;;;66.57;29.52;;;;;;;3.32;100.00;97560.78;5039606;28;20558;-79
2021/11/01 01:26:28;;;;;;;69.35;32.38;;;;;;;3.34;100.00;97548.38;5036233;28;20025;-80
2021/11/01 01:28:54;;;;;;;70.80;31.95;;;;;;;3.36;100.00;97557.09;5033316;28;20502;-79
2021/11/01 01:31:20;;;;;;;66.78;31.15;;;;;;;3.33;100.00;97546.63;5039981;28;20033;-79
2021/11/01 01:33:46;;;;;;;74.60;32.53;;;;;;;3.29;100.00;97539.75;5033181;28;20033;-80
2021/11/01 01:36:12;;;;;;;67.57;31.73;;;;;;;3.38;100.00;97547.34;5025074;28;20074;-80
2021/11/01 01:38:38;;;;;;;70.95;31.70;;;;;;;3.42;100.00;97541.03;5033228;28;20040;-80
2021/11/01 01:41:15;;;;;;;61.00;29.88;;;;;;;3.45;100.00;97550.63;5025220;28;20044;-79
2021/11/01 01:43:49;;;;;;;73.55;31.58;;;;;;;3.39;100.00;97543.78;5028060;28;20029;-79
2021/11/01 01:46:15;;;;;;;69.82;30.73;;;;;;;3.41;100.00;97536.69;5038804;28;20492;-80
2021/11/01 01:48:41;;;;;;;75.57;31.58;;;;;;;3.40;100.00;97536.72;5031707;28;20031;-80
2021/11/01 01:51:08;;;;;;;62.70;30.83;;;;;;;3.36;100.00;97545.66;5026622;28;20472;-79
2021/11/01 01:53:34;;;;;;;55.40;28.30;;;;;;;3.35;100.00;97533.38;5033313;28;20028;-79
2021/11/01 01:56:00;;;;;;;56.92;27.30;;;;;;;3.29;100.00;97539.75;5020922;28;20052;-79
2021/11/01 01:58:28;;;;;;;59.35;28.20;;;;;;;3.20;100.00;97535.59;5030208;28;20073;-81
2021/11/01 02:03:32;;;;;;;56.95;26.83;;;;;;;3.03;100.00;97530.00;5038999;28;20029;-79
2021/11/01 02:06:09;;;;;;;57.88;25.75;;;;;;;3.01;100.00;97523.94;5025093;28;20028;-81
2021/11/01 02:09:11;;;;;;;57.45;26.83;;;;;;;3.07;100.00;97534.28;5030456;28;20029;-79
2021/11/01 02:11:51;;;;;;;52.47;25.17;;;;;;;3.03;100.00;97522.09;5021559;28;20029;-79
2021/11/01 02:14:19;;;;;;;58.33;25.63;;;;;;;3.11;100.00;97516.53;5030296;28;20033;-80
2021/11/01 02:16:48;;;;;;;49.45;24.75;;;;;;;3.11;100.00;97519.19;5027637;28;20030;-80
2021/11/01 02:19:17;;;;;;;53.70;26.58;;;;;;;2.99;100.00;97509.00;5046443;28;20109;-80
2021/11/01 02:21:45;;;;;;;48.58;25.50;;;;;;;3.03;100.00;97531.78;5030243;28;20033;-80
2021/11/01 02:24:18;;;;;;;47.85;25.08;;;;;;;3.09;100.00;97521.00;5038665;28;20033;-79
2021/11/01 02:26:44;;;;;;;48.90;24.08;;;;;;;3.09;100.00;97521.00;5024815;28;20033;-79
2021/11/01 02:29:10;;;;;;;63.15;28.90;;;;;;;3.05;100.00;97509.69;5048937;28;20480;-79
2021/11/01 02:31:37;;;;;;;67.55;29.60;;;;;;;3.07;100.00;97528.13;5028129;28;20033;-79
2021/11/01 02:34:04;;;;;;;58.60;29.00;;;;;;;2.98;100.00;97515.22;5045016;28;20416;-80
2021/11/01 02:36:30;;;;;;;67.03;28.77;;;;;;;3.07;100.00;97522.84;5034059;28;20033;-80
2021/11/01 02:38:57;;;;;;;63.05;29.27;;;;;;;3.11;100.00;97520.03;5044963;28;20037;-79
2021/11/01 02:41:25;;;;;;;74.75;30.90;;;;;;;3.05;100.00;97524.66;5028171;28;20480;-79
2021/11/01 02:43:57;;;;;;;89.47;32.55;;;;;;;3.17;100.00;97524.25;5032262;28;20052;-79
2021/11/01 02:46:24;;;;;;;78.93;34.10;;;;;;;3.24;100.00;97524.03;5033429;28;20029;-79
2021/11/01 02:48:51;;;;;;;73.45;33.33;;;;;;;3.25;100.00;97516.97;5032471;28;20021;-79
2021/11/01 02:51:18;;;;;;;77.32;33.50;;;;;;;3.26;100.00;97514.25;5024995;28;20025;-79
2021/11/01 02:53:45;;;;;;;81.93;35.65;;;;;;;3.30;100.00;97509.72;5035539;28;20117;-78
2021/11/01 02:56:11;;;;;;;77.30;35.40;;;;;;;3.47;100.00;97514.44;5053205;28;20021;-78
2021/11/01 02:58:42;;;;;;;71.85;32.00;;;;;;;3.46;100.00;97508.28;5042227;28;20521;-80
2021/11/01 03:01:16;;;;;;;61.88;30.48;;;;;;;3.45;100.00;97505.69;5030210;28;20104;-80
2021/11/01 03:03:43;;;;;;;62.42;29.67;;;;;;;3.50;100.00;97509.06;5041781;28;20026;-79
2021/11/01 03:06:10;;;;;;;63.17;30.23;;;;;;;3.50;100.00;97517.84;5030371;28;20132;-79
2021/11/01 03:08:37;;;;;;;78.28;33.15;;;;;;;3.32;100.00;97502.63;5019453;28;20033;-80
2021/11/01 03:11:04;;;;;;;122.43;35.53;;;;;;;3.32;100.00;97502.63;5052884;28;20033;-80
2021/11/01 03:13:31;;;;;;;122.50;34.58;;;;;;;3.25;100.00;97501.09;5063407;28;20032;-80
2021/11/01 03:15:58;;;;;;;79.35;34.50;;;;;;;3.25;100.00;97501.97;5040717;28;20049;-79
2021/11/01 03:18:30;;;;;;;90.88;37.40;;;;;;;3.34;100.00;97492.00;5040855;28;20026;-79
2021/11/01 03:20:57;;;;;;;94.85;38.80;;;;;;;3.25;100.00;97493.19;5044551;28;20032;-79
2021/11/01 03:23:26;;;;;;;86.38;36.47;;;;;;;3.46;100.00;97503.00;5035787;28;20021;-78
2021/11/01 03:25:55;;;;;;;97.07;36.67;;;;;;;3.49;100.00;97494.97;5035548;28;20059;-79
2021/11/01 03:28:22;;;;;;;73.95;34.20;;;;;;;3.58;100.00;97494.66;5035712;28;20112;-79
2021/11/01 03:30:48;;;;;;;90.88;35.50;;;;;;;3.68;100.00;97492.53;5016749;28;20029;-79
2021/11/01 03:33:15;;;;;;;385.40;35.75;;;;;;;3.67;100.00;97481.09;5040230;28;20463;-80
2021/11/01 03:35:45;;;;;;;151.10;32.58;;;;;;;3.71;100.00;97474.78;5032811;28;20030;-80
2021/11/01 03:38:12;;;;;;;95.22;35.83;;;;;;;3.71;100.00;97479.22;5030796;28;20485;-79
2021/11/01 03:40:41;;;;;;;85.68;34.53;;;;;;;3.62;100.00;97463.69;5018233;28;20424;-79
2021/11/01 03:43:07;;;;;;;144.75;34.30;;;;;;;3.73;100.00;97470.28;5028490;28;20082;-79
2021/11/01 03:45:37;;;;;;;216.40;36.00;;;;;;;3.80;100.00;97469.16;5051973;28;20029;-79
2021/11/01 03:48:06;;;;;;;220.00;36.25;;;;;;;3.78;100.00;97476.28;5035414;28;20024;-81
2021/11/01 03:50:40;;;;;;;135.30;32.67;;;;;;;3.74;100.00;97472.03;5043409;28;20033;-80
2021/11/01 03:53:06;;;;;;;173.57;36.20;;;;;;;3.72;100.00;97479.13;5027562;28;20024;-79
2021/11/01 03:55:32;;;;;;;161.80;34.58;;;;;;;3.68;100.00;97466.09;5027949;28;20025;-80
2021/11/01 03:57:58;;;;;;;157.30;35.95;;;;;;;3.75;100.00;97462.31;5034478;28;20049;-78
2021/11/01 04:00:29;;;;;;;194.40;34.08;;;;;;;3.92;100.00;97477.56;5035021;28;20032;-79
2021/11/01 04:02:55;;;;;;;127.70;33.55;;;;;;;3.71;100.00;97448.34;5026727;28;20346;-80
2021/11/01 04:05:21;;;;;;;212.23;38.67;;;;;;;3.80;100.00;97466.53;5026651;28;20036;-79
2021/11/01 04:07:47;;;;;;;225.23;40.35;;;;;;;3.82;100.00;97461.16;5025596;28;20142;-79
2021/11/01 04:10:13;;;;;;;139.80;40.70;;;;;;;3.88;100.00;97470.69;5019716;28;20044;-80
2021/11/01 04:12:41;;;;;;;182.50;41.72;;;;;;;3.81;100.00;97460.28;5018533;28;20030;-79
2021/11/01 04:15:11;;;;;;;166.77;41.47;;;;;;;3.89;100.00;97459.16;5015417;28;20036;-79
2021/11/01 04:22:32;;;;;;;218.70;40.15;;;;;;;4.01;100.00;97456.91;5045480;28;20063;-80
2021/11/01 04:24:59;;;;;;;218.65;39.90;;;;;;;4.01;100.00;97450.75;5025737;28;20032;-80
2021/11/01 04:27:25;;;;;;;155.07;38.15;;;;;;;4.05;100.00;97455.03;5061639;28;20455;-80
2021/11/01 04:29:51;;;;;;;208.30;39.58;;;;;;;4.04;100.00;97462.09;5016629;28;20068;-80
2021/11/01 04:32:37;;;;;;;233.38;41.92;;;;;;;3.93;100.00;97450.19;5029646;28;20058;-81
2021/11/01 04:35:20;;;;;;;290.83;41.92;;;;;;;3.89;100.00;97451.22;5049993;28;20492;-79
2021/11/01 04:37:48;;;;;;;247.55;39.72;;;;;;;3.80;100.00;97448.00;5033510;28;20033;-80
2021/11/01 04:40:34;;;;;;;136.25;36.50;;;;;;;3.70;100.00;97436.03;5031146;28;20027;-80
2021/11/01 04:43:34;;;;;;;97.05;32.17;;;;;;;3.71;100.00;97447.47;5047520;28;20036;-80
2021/11/01 04:54:12;;;;;;;259.60;34.05;;;;;;;3.68;100.00;97443.16;5045058;28;20051;-81
2021/11/01 04:56:37;;;;;;;328.85;35.88;;;;;;;3.63;100.00;97442.44;5024047;28;20025;-80
2021/11/01 04:59:03;;;;;;;206.55;34.28;;;;;;;3.54;100.00;97424.28;5020934;28;20064;-81
2021/11/01 05:01:37;;;;;;;150.90;32.67;;;;;;;3.59;100.00;97438.22;5022639;28;20040;-80
2021/11/01 05:04:07;;;;;;;206.60;34.67;;;;;;;3.62;100.00;97443.38;5020247;28;20025;-80
2021/11/01 05:06:34;;;;;;;136.57;35.70;;;;;;;3.58;100.00;97435.59;5024510;28;20029;-80
2021/11/01 05:09:07;;;;;;;244.32;41.60;;;;;;;3.59;100.00;97429.41;5033881;28;20102;-82
2021/11/01 05:14:39;;;;;;;232.23;44.65;;;;;;;3.60;100.00;97434.63;5009078;28;20052;-80
2021/11/01 05:19:57;;;;;;;177.93;40.88;;;;;;;3.18;100.00;97447.59;5040228;28;20443;-80
2021/11/01 05:25:15;;;;;;;300.55;44.95;;;;;;;3.43;100.00;97447.59;5045080;28;20067;-81
2021/11/01 05:30:42;;;;;;;237.93;43.65;;;;;;;3.43;100.00;97446.72;5060222;28;20029;-80
2021/11/01 05:33:17;;;;;;;339.80;47.90;;;;;;;3.17;100.00;97434.41;5041015;28;20045;-79
2021/11/01 05:35:42;;;;;;;202.93;47.08;;;;;;;3.24;100.00;97436.81;5015239;28;20044;-79
2021/11/01 05:38:08;;;;;;;114.97;43.50;;;;;;;3.50;100.00;97450.91;5015974;28;20014;-78
2021/11/01 05:40:35;;;;;;;97.93;37.88;;;;;;;3.50;100.00;97441.19;5047895;28;20029;-80
2021/11/01 05:43:02;;;;;;;140.30;39.13;;;;;;;3.65;100.00;97450.34;5063919;28;20025;-80
2021/11/01 05:45:28;;;;;;;94.85;34.20;;;;;;;3.58;100.00;97435.59;5024365;28;20025;-82
2021/11/01 05:47:58;;;;;;;88.85;34.20;;;;;;;3.74;100.00;97450.88;5025459;28;20107;-80
2021/11/01 05:50:26;;;;;;;83.22;33.72;;;;;;;3.92;100.00;97459.03;5033661;28;20033;-81
2021/11/01 05:52:52;;;;;;;109.07;35.33;;;;;;;3.88;100.00;97437.13;5044541;28;20025;-81
2021/11/01 05:58:03;;;;;;;265.60;42.78;;;;;;;4.16;100.00;97455.47;5067280;28;20036;-81
2021/11/01 06:03:06;;;;;;;279.35;42.35;;;;;;;3.95;100.00;97437.75;5064916;28;20033;-80
2021/11/01 06:13:31;;;;;;;211.77;38.17;;;;;;;4.27;100.00;97445.34;5051937;28;20028;-81
2021/11/01 06:15:59;;;;;;;231.73;42.55;;;;;;;4.46;100.00;97446.31;5044966;28;20450;-81
2021/11/01 06:18:37;;;;;;;125.03;33.47;;;;;;;4.32;100.00;97430.13;5034742;28;20115;-81
2021/11/01 06:21:17;;;;;;;163.93;33.50;;;;;;;4.63;100.00;97443.91;5055331;28;20113;-80
2021/11/01 06:23:51;;;;;;;249.52;94.15;;;;;;;4.88;100.00;97451.72;5035748;28;20051;-81
2021/11/01 06:26:17;;;;;;;107.18;39.88;;;;;;;4.99;100.00;97448.59;5041668;28;20024;-79
2021/11/01 06:28:44;;;;;;;89.07;39.65;;;;;;;5.18;100.00;97460.16;5036192;28;20032;-79
2021/11/01 06:31:13;;;;;;;169.98;80.65;;;;;;;5.29;100.00;97452.63;5040089;28;20462;-79
2021/11/01 06:44:24;;;;;;;93.55;24.98;;;;;;;5.68;100.00;97445.59;5048099;28;20170;-79
2021/11/01 06:55:06;;;;;;;68.88;25.85;;;;;;;5.54;100.00;97442.66;5053586;28;20035;-80
2021/11/01 06:57:40;;;;;;;93.90;21.45;;;;;;;5.91;100.00;97450.75;5038011;28;20023;-80
2021/11/01 07:16:55;;;;;;;53.92;25.77;;;;;;;11.29;74.52;97431.13;5057562;28;20035;-82
2021/11/01 08:47:08;;;;;;;70.80;40.40;;;;;;;22.42;40.17;97322.09;5063158;28;20031;-84
2021/11/01 09:22:40;;;;;;;27.48;17.48;;;;;;;25.15;33.50;97266.31;5036160;28;20028;-83
2021/11/01 09:24:50;;;;;;;26.70;19.90;;;;;;;25.65;33.22;97253.59;5034590;28;20586;-83
2021/11/01 09:27:20;;;;;;;30.70;19.98;;;;;;;26.64;31.73;97255.22;5050405;28;20492;-82
2021/11/01 09:30:09;;;;;;;36.60;20.90;;;;;;;26.29;32.34;97257.97;5029153;28;20035;-84
2021/11/01 09:38:13;;;;;;;35.10;22.55;;;;;;;25.19;33.89;97256.69;5060734;28;20523;-83
2021/11/01 09:43:24;;;;;;;28.80;19.35;;;;;;;26.29;32.21;97246.13;5074867;28;20051;-83
2021/11/01 09:45:55;;;;;;;32.88;20.20;;;;;;;26.48;31.45;97236.34;5022449;28;20099;-81
2021/11/01 09:48:21;;;;;;;24.20;17.08;;;;;;;26.33;31.07;97229.06;5021094;28;20436;-81
2021/11/01 09:50:49;;;;;;;29.45;17.95;;;;;;;25.62;32.77;97221.09;5038445;28;20098;-80
2021/11/01 09:53:23;;;;;;;33.85;22.42;;;;;;;26.01;31.84;97213.19;5041053;28;20104;-82
2021/11/01 09:59:11;;;;;;;25.95;16.88;;;;;;;26.26;31.56;97199.91;5053083;28;20052;-82
2021/11/01 10:01:38;;;;;;;25.90;16.90;;;;;;;26.87;31.40;97201.72;5037309;28;20032;-81
2021/11/01 10:04:13;;;;;;;22.15;15.07;;;;;;;27.77;30.37;97181.22;5020664;28;20411;-82
2021/11/01 10:06:42;;;;;;;25.85;14.98;;;;;;;27.62;29.42;97186.06;5037493;28;20021;-81
2021/11/01 10:09:12;;;;;;;19.52;15.00;;;;;;;27.63;29.11;97150.13;5037364;28;20036;-82
2021/11/01 10:11:41;;;;;;;20.05;15.77;;;;;;;25.87;31.47;97175.78;5021392;28;20031;-82
2021/11/01 10:17:34;;;;;;;22.30;14.45;;;;;;;27.48;28.45;97167.88;5034661;28;20559;-83
2021/11/01 10:18:19;;;;;;;26.92;15.43;;;;;;;27.57;28.40;97158.34;4996222;28;20041;-82
2021/11/01 10:27:37;;;;;;;21.27;14.85;;;;;;;27.68;28.78;97144.00;5062533;28;20043;-85
2021/11/01 10:30:15;;;;;;;19.60;14.45;;;;;;;27.82;27.60;97138.25;5029351;28;20140;-86
2021/11/01 10:32:46;;;;;;;21.00;14.02;;;;;;;28.39;27.17;97126.53;5044719;28;20037;-84
2021/11/01 10:42:26;;;;;;;18.25;13.75;;;;;;;28.90;24.64;97100.91;5065604;28;20095;-85
2021/11/01 10:45:01;;;;;;;14.70;10.85;;;;;;;29.07;24.29;97096.56;5045209;28;20132;-86
2021/11/01 11:11:16;;;;;;;17.83;12.70;;;;;;;30.15;22.80;97059.34;5051963;28;20107;-85
2021/11/01 11:13:45;;;;;;;13.10;8.95;;;;;;;29.62;22.67;97042.50;5047696;28;20200;-86
2021/11/01 11:16:23;;;;;;;11.52;9.88;;;;;;;30.15;22.58;97056.59;5049228;28;20692;-85
2021/11/01 11:18:57;;;;;;;12.00;8.45;;;;;;;29.68;22.87;97052.63;5055954;28;20123;-85
2021/11/01 11:41:08;;;;;;;14.75;11.05;;;;;;;29.55;23.96;97039.81;5040135;28;20087;-86
2021/11/01 11:50:18;;;;;;;33.33;11.00;;;;;;;28.53;24.27;97034.59;5066475;28;20040;-85
2021/11/01 11:52:51;;;;;;;20.58;10.55;;;;;;;28.77;23.84;97023.88;5052836;28;20032;-78
2021/11/01 11:55:25;;;;;;;14.35;9.27;;;;;;;28.75;23.61;97004.00;5052868;28;20047;-75
2021/11/01 11:57:56;;;;;;;10.13;8.70;;;;;;;30.10;22.39;97010.38;5046637;28;20063;-73
2021/11/01 12:00:25;;;;;;;14.57;9.48;;;;;;;30.64;21.84;97000.34;5056875;28;20029;-79
2021/11/01 12:02:51;;;;;;;15.18;10.32;;;;;;;30.39;21.97;97000.50;5041456;28;20056;-75
2021/11/01 12:05:24;;;;;;;16.05;10.48;;;;;;;30.04;22.98;97004.94;5026366;28;20075;-74
2021/11/01 12:08:31;;;;;;;13.90;9.90;;;;;;;29.25;23.18;96996.63;5046176;28;20024;-75
2021/11/01 12:18:59;;;;;;;16.48;11.50;;;;;;;28.31;24.47;97005.69;5068729;28;20574;-81
2021/11/01 12:21:25;;;;;;;16.65;11.40;;;;;;;28.20;24.83;97005.53;5031332;28;20037;-83
2021/11/01 12:23:52;;;;;;;40.50;11.95;;;;;;;28.76;23.93;97001.03;5058576;28;20478;-82
2021/11/01 12:26:20;;;;;;;14.70;10.38;;;;;;;29.46;23.26;97002.56;5041937;28;20029;-81
2021/11/01 12:28:54;;;;;;;16.85;9.88;;;;;;;29.38;23.01;96996.50;5050072;28;20119;-82
2021/11/01 12:31:21;;;;;;;11.35;8.82;;;;;;;29.28;22.88;96993.44;5047931;28;20102;-80
2021/11/01 12:33:54;;;;;;;15.48;10.32;;;;;;;29.75;22.57;96994.66;5051507;28;20039;-77
2021/11/01 12:36:27;;;;;;;14.52;9.18;;;;;;;28.50;22.89;96970.88;5047018;28;20502;-75
2021/11/01 12:38:57;;;;;;;17.67;9.77;;;;;;;27.95;24.08;96986.16;5044736;28;20033;-76
2021/11/01 12:57:35;;;;;;;18.30;8.98;;;;;;;28.48;22.83;96949.09;5041243;28;20024;-79
2021/11/01 13:00:03;;;;;;;11.23;9.07;;;;;;;28.16;22.87;96952.88;5033819;28;20086;-84
2021/11/01 13:02:35;;;;;;;20.13;9.65;;;;;;;28.17;22.53;96945.47;5022594;28;20033;-74
2021/11/01 13:05:07;;;;;;;14.30;8.98;;;;;;;28.61;22.40;96952.81;5044744;28;20067;-75
2021/11/01 13:18:11;;;;;;;15.75;10.15;;;;;;;28.74;22.15;96939.81;5055885;28;20184;-74
2021/11/01 13:20:41;;;;;;;;;;;;;;;28.76;22.32;96940.44;5033352;28;20372;-75
2021/11/01 13:23:08;;;;;;;14.15;9.35;;;;;;;28.63;22.26;96936.91;5051076;28;19943;-75
2021/11/01 13:38:49;;;;;;;23.10;10.07;;;;;;;30.15;21.19;96934.34;5047807;28;20025;-77
2021/11/01 13:41:27;;;;;;;17.35;11.30;;;;;;;29.85;21.12;96945.31;5060126;28;20052;-77
2021/11/01 13:44:06;;;;;;;13.15;9.38;;;;;;;29.61;21.02;96937.94;5049493;28;20541;-78
2021/11/01 13:46:32;;;;;;;22.05;11.32;;;;;;;29.74;21.27;96935.03;5054440;28;20469;-74
2021/11/01 13:49:00;;;;;;;15.98;11.43;;;;;;;29.31;21.41;96938.69;5063270;28;20027;-74
2021/11/01 13:51:30;;;;;;;14.77;8.00;;;;;;;28.41;22.01;96929.00;5035754;28;20502;-75
2021/11/01 13:58:59;;;;;;;19.35;10.50;;;;;;;27.65;22.77;96917.13;5051354;28;20052;-80
2021/11/01 14:14:53;;;;;;;19.13;11.77;;;;;;;27.98;23.18;96914.22;5041147;28;20398;-81
2021/11/01 14:17:32;;;;;;;28.15;13.13;;;;;;;27.33;23.78;96923.53;5041559;28;20132;-80
2021/11/01 15:03:45;;;;;;;38.90;20.60;;;;;;;16.87;49.40;97042.25;5043705;28;20118;-78
2021/11/01 15:27:12;;;;;;;69.50;36.63;;;;;;;14.47;56.76;97047.91;5042019;28;20045;-80
2021/11/01 15:40:36;;;;;;;50.45;24.15;;;;;;;13.82;59.77;97031.91;5002024;28;20037;-75
2021/11/01 16:18:38;;;;;;;85.03;47.72;;;;;;;12.32;67.14;97029.75;5046440;28;20078;-74
2021/11/01 16:21:05;;;;;;;87.30;44.05;;;;;;;12.15;67.97;97038.25;5029252;28;20094;-75
2021/11/01 16:23:38;;;;;;;80.80;46.65;;;;;;;12.08;67.40;97048.59;5031510;28;20029;-76
2021/11/01 16:28:43;;;;;;;67.13;35.08;;;;;;;11.87;69.49;97036.81;5064611;28;20029;-74
2021/11/01 16:33:46;;;;;;;70.40;37.03;;;;;;;11.57;71.17;97036.38;5049096;28;20067;-82
2021/11/01 16:36:24;;;;;;;79.50;41.67;;;;;;;11.43;72.08;97038.25;5038201;28;20091;-84
2021/11/01 16:38:56;;;;;;;83.72;47.55;;;;;;;11.28;71.10;97038.53;5048107;28;20082;-85
2021/11/01 16:41:25;;;;;;;59.45;31.98;;;;;;;11.26;70.69;97046.66;5031245;28;20028;-83
2021/11/01 16:43:50;;;;;;;67.30;33.58;;;;;;;11.19;71.62;97048.09;5023308;28;20032;-84
2021/11/01 16:46:16;;;;;;;91.93;45.03;;;;;;;11.10;72.82;97048.75;5024854;28;20031;-82
2021/11/01 16:48:48;;;;;;;92.40;48.70;;;;;;;10.94;72.16;97053.47;5046428;28;20028;-85
2021/11/01 16:51:13;;;;;;;100.43;53.43;;;;;;;10.83;73.81;97054.22;5023688;28;20090;-84
2021/11/01 16:53:44;;;;;;;95.32;49.75;;;;;;;10.70;73.72;97049.88;5030235;28;20271;-85
2021/11/01 17:02:07;;;;;;;131.48;60.95;;;;;;;10.56;73.26;97047.28;5022698;28;20098;-82
2021/11/01 17:04:34;;;;;;;90.18;44.95;;;;;;;10.40;73.13;97042.16;5055007;28;20028;-83
2021/11/01 17:07:07;;;;;;;107.32;46.53;;;;;;;10.30;73.86;97052.63;5035163;28;20466;-84
2021/11/01 17:10:25;;;;;;;93.03;47.92;;;;;;;10.24;74.20;97044.19;5025925;28;20511;-81
2021/11/01 17:37:04;;;;;;;94.63;46.75;;;;;;;9.51;79.79;97042.88;5049477;28;20032;-85
2021/11/01 18:44:01;;;;;;;118.60;63.45;;;;;;;7.64;100.00;97073.19;5045867;28;20043;-76
2021/11/01 18:52:18;;;;;;;133.43;66.13;;;;;;;7.48;100.00;97060.84;5050855;28;20043;-77
2021/11/01 18:54:47;;;;;;;168.55;82.00;;;;;;;7.41;100.00;97057.66;5053131;28;20025;-76
2021/11/01 18:57:15;;;;;;;150.93;73.43;;;;;;;7.44;100.00;97056.66;5049250;28;20097;-77
2021/11/01 18:59:45;;;;;;;121.10;58.72;;;;;;;7.44;100.00;97060.19;5059373;28;20548;-76
2021/11/01 19:05:00;;;;;;;87.72;42.30;;;;;;;7.28;100.00;97063.78;5060939;28;20038;-76
2021/11/01 19:16:19;;;;;;;84.13;43.00;;;;;;;7.11;100.00;97055.94;5052640;28;20017;-77
2021/11/01 20:05:54;;;;;;;160.13;74.55;;;;;;;6.28;100.00;97033.00;5010401;28;20326;-86
2021/11/01 21:25:52;;;;;;;88.30;43.17;;;;;;;5.49;100.00;97012.34;5054932;28;20111;-81
2021/11/01 21:28:18;;;;;;;96.18;47.65;;;;;;;5.36;100.00;97003.28;5029318;28;20491;-82
2021/11/01 21:30:44;;;;;;;101.72;49.30;;;;;;;5.23;100.00;96987.13;5030522;28;20461;-83
2021/11/01 21:33:14;;;;;;;99.88;46.92;;;;;;;5.22;100.00;96989.88;5031109;28;20036;-81
2021/11/01 21:35:49;;;;;;;103.65;51.08;;;;;;;5.27;100.00;96971.94;5024653;28;20120;-81
2021/11/01 21:38:15;;;;;;;105.07;46.00;;;;;;;5.48;100.00;96976.16;5030083;28;20020;-80
2021/11/01 21:40:45;;;;;;;121.97;56.45;;;;;;;5.45;100.00;96977.16;5040530;28;20135;-83
2021/11/01 21:43:11;;;;;;;104.55;50.15;;;;;;;5.50;100.00;96979.59;5021491;28;20545;-83
2021/11/01 21:45:37;;;;;;;93.57;47.13;;;;;;;5.62;100.00;96973.66;5034979;28;20036;-82
2021/11/01 21:48:03;;;;;;;94.88;47.85;;;;;;;5.55;100.00;96961.66;5021131;28;20029;-82
2021/11/01 21:50:29;;;;;;;89.93;47.17;;;;;;;5.62;100.00;96962.19;5027723;28;20042;-82
2021/11/01 21:52:57;;;;;;;87.97;44.30;;;;;;;5.80;100.00;96961.22;5037306;28;20032;-82
2021/11/01 21:55:24;;;;;;;81.35;40.10;;;;;;;5.93;100.00;96970.31;5029440;28;20185;-80
2021/11/01 21:57:58;;;;;;;55.15;27.77;;;;;;;6.59;100.00;96956.94;5045851;28;20032;-81
2021/11/01 22:00:41;;;;;;;63.33;31.77;;;;;;;7.76;100.00;96957.16;5037142;28;20024;-81
2021/11/01 22:17:39;;;;;;;67.88;33.53;;;;;;;5.63;100.00;96948.84;5053906;28;20066;-82
2021/11/01 22:20:20;;;;;;;74.55;34.83;;;;;;;5.42;100.00;96948.16;5049057;28;20045;-82
2021/11/01 22:25:19;;;;;;;83.05;39.92;;;;;;;5.43;100.00;96943.72;5042605;28;20104;-82
2021/11/01 22:57:25;;;;;;;68.80;30.70;;;;;;;5.57;100.00;96917.31;5048530;28;20059;-80
2021/11/01 22:59:51;;;;;;;54.38;27.55;;;;;;;5.64;100.00;96908.13;5054551;28;20044;-80
2021/11/01 23:02:17;;;;;;;61.10;29.55;;;;;;;5.90;100.00;96906.78;5036052;28;20032;-81
2021/11/01 23:05:11;;;;;;;58.28;27.75;;;;;;;5.87;100.00;96902.50;5046457;28;20479;-81
2021/11/01 23:32:38;;;;;;;64.80;28.85;;;;;;;5.66;100.00;96884.19;5042966;28;20037;-81
2021/11/01 23:35:04;;;;;;;56.17;27.45;;;;;;;5.83;100.00;96869.06;5052382;28;20036;-82
2021/11/01 23:37:29;;;;;;;55.17;26.88;;;;;;;5.98;100.00;96878.88;5046695;28;20040;-81
2021/11/01 23:39:55;;;;;;;62.65;30.08;;;;;;;5.71;100.00;96867.06;5035692;28;20549;-81
2021/11/01 23:42:20;;;;;;;63.60;30.50;;;;;;;5.66;100.00;96866.44;5031042;28;20095;-81
2021/11/01 23:44:46;;;;;;;61.58;30.38;;;;;;;5.67;100.00;96844.28;5035679;28;20025;-81
2021/11/01 23:47:12;;;;;;;58.80;28.80;;;;;;;5.57;100.00;96861.63;5016007;28;20079;-81
2021/11/01 23:49:37;;;;;;;59.70;29.65;;;;;;;5.67;100.00;96860.19;5015293;28;20099;-81
2021/11/01 23:52:13;;;;;;;62.72;29.55;;;;;;;5.72;100.00;96858.16;5015767;28;20068;-80
2021/11/01 23:54:45;;;;;;;56.53;27.80;;;;;;;5.70;100.00;96852.09;5031854;28;20036;-81
2021/11/01 23:57:14;;;;;;;54.63;27.42;;;;;;;5.65;100.00;96840.88;5036230;28;20491;-82
2021/11/01 23:59:40;;;;;;;57.35;28.00;;;;;;;5.67;100.00;96846.06;5036577;28;20504;-82
